createdAt,value
2018-12-14T00:01:54.015Z,31.56
2018-12-14T00:04:19.988Z,31.38
2018-12-14T00:06:45.959Z,31.40
2018-12-14T00:09:11.921Z,31.34
2018-12-14T00:11:37.955Z,31.44
2018-12-14T00:14:03.920Z,31.29
2018-12-14T00:16:29.887Z,31.26
2018-12-14T00:18:55.879Z,31.27
2018-12-14T00:21:21.876Z,31.18
2018-12-14T00:23:47.857Z,31.42
2018-12-14T00:26:13.844Z,31.16
2018-12-14T00:28:39.839Z,31.04
2018-12-14T00:31:05.821Z,31.21
2018-12-14T00:33:31.793Z,31.37
2018-12-14T00:35:57.757Z,30.88
2018-12-14T00:38:23.735Z,30.87
2018-12-14T00:40:49.708Z,31.38
2018-12-14T00:43:15.709Z,30.84
2018-12-14T00:45:41.676Z,30.89
2018-12-14T00:48:07.659Z,31.26
2018-12-14T00:50:33.648Z,30.84
2018-12-14T00:52:59.651Z,31.12
2018-12-14T00:55:25.618Z,30.76
2018-12-14T00:57:51.606Z,30.79
2018-12-14T01:00:17.569Z,30.66
2018-12-14T01:02:43.558Z,30.94
2018-12-14T01:05:09.518Z,30.78
2018-12-14T01:07:35.503Z,31.01
2018-12-14T01:10:01.489Z,30.75
2018-12-14T01:12:27.482Z,30.93
2018-12-14T01:14:53.433Z,30.61
2018-12-14T01:17:19.467Z,30.53
2018-12-14T01:19:45.438Z,30.63
2018-12-14T01:22:11.419Z,30.97
2018-12-14T01:24:37.453Z,30.75
2018-12-14T01:27:03.432Z,30.56
2018-12-14T01:29:29.432Z,30.43
2018-12-14T01:31:55.430Z,30.65
2018-12-14T01:34:21.407Z,30.38
2018-12-14T01:36:47.400Z,30.57
2018-12-14T01:39:13.383Z,30.36
2018-12-14T01:41:39.373Z,30.61
2018-12-14T01:44:05.367Z,30.36
2018-12-14T01:46:31.360Z,30.31
2018-12-14T01:48:57.333Z,30.60
2018-12-14T01:51:23.322Z,30.76
2018-12-14T01:53:49.294Z,30.77
2018-12-14T01:56:15.248Z,30.59
2018-12-14T01:58:41.232Z,30.30
2018-12-14T02:01:07.232Z,30.42
2018-12-14T02:03:33.207Z,30.31
2018-12-14T02:05:59.211Z,30.61
2018-12-14T02:08:25.190Z,30.47
2018-12-14T02:10:51.188Z,30.56
2018-12-14T02:13:17.162Z,30.41
2018-12-14T02:15:43.145Z,30.19
2018-12-14T02:18:09.130Z,30.18
2018-12-14T02:20:35.111Z,30.24
2018-12-14T02:23:01.087Z,30.25
2018-12-14T02:25:27.089Z,30.19
2018-12-14T02:27:53.082Z,30.52
2018-12-14T02:30:19.073Z,30.58
2018-12-14T02:32:45.059Z,30.19
2018-12-14T02:35:11.037Z,30.52
2018-12-14T02:37:37.016Z,30.36
2018-12-14T02:40:03.013Z,30.39
2018-12-14T02:42:28.991Z,30.42
2018-12-14T02:44:54.956Z,30.45
2018-12-14T02:47:20.945Z,30.30
2018-12-14T02:49:46.946Z,30.32
2018-12-14T02:52:12.911Z,30.15
2018-12-14T02:54:38.898Z,30.35
2018-12-14T02:57:04.857Z,30.32
2018-12-14T02:59:30.843Z,30.16
2018-12-14T03:01:56.835Z,30.35
2018-12-14T03:04:22.840Z,30.71
2018-12-14T03:06:48.815Z,30.35
2018-12-14T03:09:14.780Z,30.12
2018-12-14T03:11:40.758Z,30.15
2018-12-14T03:14:06.756Z,30.31
2018-12-14T03:16:32.724Z,30.44
2018-12-14T03:18:58.715Z,30.39
2018-12-14T03:21:24.684Z,30.48
2018-12-14T03:23:50.671Z,30.10
2018-12-14T03:26:16.658Z,30.14
2018-12-14T03:28:42.637Z,30.12
2018-12-14T03:31:08.616Z,30.17
2018-12-14T03:33:34.584Z,30.21
2018-12-14T03:36:00.609Z,30.04
2018-12-14T03:38:26.577Z,30.21
2018-12-14T03:40:52.555Z,30.32
2018-12-14T03:43:18.539Z,30.09
2018-12-14T03:45:44.524Z,30.18
2018-12-14T03:48:10.511Z,30.26
2018-12-14T03:50:36.511Z,30.15
2018-12-14T03:53:02.480Z,30.21
2018-12-14T03:55:28.481Z,30.03
2018-12-14T03:57:54.449Z,30.43
2018-12-14T04:00:20.425Z,30.03
2018-12-14T04:02:46.420Z,30.12
2018-12-14T04:05:12.398Z,30.19
2018-12-14T04:07:38.375Z,29.99
2018-12-14T04:10:04.378Z,30.00
2018-12-14T04:12:30.364Z,30.11
2018-12-14T04:14:56.351Z,30.13
2018-12-14T04:17:22.333Z,30.00
2018-12-14T04:19:48.313Z,29.89
2018-12-14T04:22:14.281Z,30.40
2018-12-14T04:24:40.284Z,30.30
2018-12-14T04:27:06.276Z,30.30
2018-12-14T04:29:32.260Z,29.83
2018-12-14T04:31:58.235Z,30.03
2018-12-14T04:34:24.215Z,30.10
2018-12-14T04:36:50.198Z,30.07
2018-12-14T04:39:16.177Z,29.67
2018-12-14T04:41:42.153Z,29.80
2018-12-14T04:44:08.115Z,29.92
2018-12-14T04:46:34.088Z,29.91
2018-12-14T04:49:00.077Z,29.96
2018-12-14T04:51:26.062Z,30.01
2018-12-14T04:53:52.078Z,29.77
2018-12-14T04:56:18.067Z,29.72
2018-12-14T04:58:44.054Z,29.81
2018-12-14T05:01:10.027Z,29.68
2018-12-14T05:03:36.031Z,29.91
2018-12-14T05:06:02.036Z,29.86
2018-12-14T05:08:28.017Z,29.68
2018-12-14T05:10:54.008Z,30.01
2018-12-14T05:13:19.960Z,29.73
2018-12-14T05:15:45.936Z,29.64
2018-12-14T05:18:11.940Z,29.93
2018-12-14T05:20:37.898Z,29.91
2018-12-14T05:23:03.872Z,30.09
2018-12-14T05:25:29.843Z,30.01
2018-12-14T05:27:55.841Z,30.11
2018-12-14T05:30:21.854Z,30.09
2018-12-14T05:32:47.838Z,30.38
2018-12-14T05:35:13.816Z,30.34
2018-12-14T05:37:39.801Z,30.57
2018-12-14T05:40:05.843Z,30.92
2018-12-14T05:42:31.843Z,30.89
2018-12-14T05:44:57.841Z,30.79
2018-12-14T05:47:23.824Z,30.84
2018-12-14T05:49:49.802Z,31.09
2018-12-14T05:52:15.831Z,31.13
2018-12-14T05:54:41.799Z,31.31
2018-12-14T05:57:07.785Z,31.54
2018-12-14T05:59:33.805Z,31.74
2018-12-14T06:01:59.817Z,31.76
2018-12-14T06:04:25.784Z,31.98
2018-12-14T06:06:51.750Z,32.11
2018-12-14T06:09:17.721Z,32.27
2018-12-14T06:11:43.714Z,32.27
2018-12-14T06:14:09.678Z,32.23
2018-12-14T06:16:35.652Z,32.34
2018-12-14T06:19:01.625Z,32.24
2018-12-14T06:21:27.646Z,32.26
2018-12-14T06:23:53.628Z,32.27
2018-12-14T06:26:19.586Z,32.19
2018-12-14T06:28:45.568Z,32.15
2018-12-14T06:31:11.578Z,32.17
2018-12-14T06:33:37.586Z,32.16
2018-12-14T06:36:03.551Z,32.48
2018-12-14T06:38:29.537Z,32.73
2018-12-14T06:40:55.523Z,32.91
2018-12-14T06:43:21.520Z,32.85
2018-12-14T06:45:47.481Z,32.87
2018-12-14T06:48:13.527Z,32.86
2018-12-14T06:50:39.518Z,32.76
2018-12-14T06:53:05.495Z,32.71
2018-12-14T06:55:31.459Z,32.63
2018-12-14T06:57:57.439Z,32.57
2018-12-14T07:00:23.428Z,32.22
2018-12-14T07:02:49.410Z,32.30
2018-12-14T07:05:15.442Z,32.13
2018-12-14T07:07:41.430Z,32.19
2018-12-14T07:10:07.432Z,31.95
2018-12-14T07:12:33.413Z,31.79
2018-12-14T07:14:59.414Z,31.88
2018-12-14T07:17:25.447Z,31.76
2018-12-14T07:19:51.433Z,31.81
2018-12-14T07:22:17.410Z,31.67
2018-12-14T07:24:43.438Z,31.78
2018-12-14T07:27:09.434Z,31.56
2018-12-14T07:29:35.418Z,31.34
2018-12-14T07:32:01.387Z,31.38
2018-12-14T07:34:27.403Z,31.39
2018-12-14T07:36:53.386Z,31.28
2018-12-14T07:39:19.402Z,31.28
2018-12-14T07:41:45.398Z,31.24
2018-12-14T07:44:11.391Z,31.12
2018-12-14T07:46:37.378Z,31.31
2018-12-14T07:49:03.444Z,31.45
2018-12-14T07:51:29.430Z,31.41
2018-12-14T07:53:55.500Z,31.33
2018-12-14T07:56:21.462Z,31.56
2018-12-14T07:58:47.461Z,31.87
2018-12-14T08:01:13.438Z,32.53
2018-12-14T08:03:39.426Z,32.70
2018-12-14T08:06:05.455Z,32.71
2018-12-14T08:08:31.434Z,32.69
2018-12-14T08:10:57.419Z,32.90
2018-12-14T08:13:23.514Z,32.86
2018-12-14T08:15:49.499Z,32.70
2018-12-14T08:18:15.485Z,32.61
2018-12-14T08:20:41.473Z,32.42
2018-12-14T08:23:07.458Z,32.53
2018-12-14T08:25:33.431Z,32.53
2018-12-14T08:27:59.458Z,32.53
2018-12-14T08:30:25.445Z,32.39
2018-12-14T08:32:51.440Z,32.45
2018-12-14T08:35:17.439Z,32.47
2018-12-14T08:37:43.402Z,32.37
2018-12-14T08:40:09.394Z,32.39
2018-12-14T08:42:35.580Z,32.33
2018-12-14T08:45:01.576Z,32.25
2018-12-14T08:47:27.562Z,32.14
2018-12-14T08:49:53.556Z,32.16
2018-12-14T08:52:19.552Z,32.52
2018-12-14T08:54:45.542Z,33.13
2018-12-14T08:57:11.565Z,33.27
2018-12-14T08:59:37.536Z,32.57
2018-12-14T09:02:03.546Z,32.81
2018-12-14T09:04:29.557Z,32.90
2018-12-14T09:06:55.552Z,32.62
2018-12-14T09:09:21.572Z,32.25
2018-12-14T09:11:47.556Z,32.01
2018-12-14T09:14:13.530Z,31.72
2018-12-14T09:16:39.518Z,31.65
2018-12-14T09:19:05.509Z,31.01
2018-12-14T09:21:31.498Z,30.94
2018-12-14T09:23:57.480Z,31.00
2018-12-14T09:26:23.458Z,31.04
2018-12-14T09:28:49.507Z,30.96
2018-12-14T09:31:15.428Z,30.83
2018-12-14T09:33:41.428Z,30.56
2018-12-14T09:36:07.414Z,29.70
2018-12-14T09:38:33.389Z,30.59
2018-12-14T09:40:59.405Z,30.43
2018-12-14T09:43:25.383Z,30.11
2018-12-14T09:45:51.369Z,30.26
2018-12-14T09:48:17.336Z,30.20
2018-12-14T09:50:43.300Z,29.85
2018-12-14T09:53:09.272Z,30.18
2018-12-14T09:55:35.271Z,30.07
2018-12-14T09:58:01.247Z,30.14
2018-12-14T10:00:27.210Z,29.68
2018-12-14T10:02:53.206Z,29.82
2018-12-14T10:05:19.161Z,29.16
2018-12-14T10:07:47.011Z,29.74
2018-12-14T10:10:11.126Z,30.08
2018-12-14T10:12:37.085Z,30.13
2018-12-14T10:15:03.061Z,30.16
2018-12-14T10:17:29.045Z,30.39
2018-12-14T10:19:55.044Z,29.96
2018-12-14T10:22:21.034Z,30.17
2018-12-14T10:24:47.018Z,30.32
2018-12-14T10:27:13.015Z,30.30
2018-12-14T10:29:38.979Z,30.55
2018-12-14T10:32:04.950Z,30.42
2018-12-14T10:34:30.961Z,30.17
2018-12-14T10:36:56.947Z,30.68
2018-12-14T10:39:22.912Z,30.88
2018-12-14T10:41:48.893Z,30.77
2018-12-14T10:44:14.852Z,30.69
2018-12-14T10:46:40.834Z,30.79
2018-12-14T10:49:06.851Z,30.69
2018-12-14T10:51:32.814Z,30.92
2018-12-14T10:53:58.781Z,30.99
2018-12-14T10:56:24.756Z,30.80
2018-12-14T10:58:50.786Z,31.13
2018-12-14T11:01:16.773Z,31.05
2018-12-14T11:03:42.763Z,31.05
2018-12-14T11:06:08.754Z,31.20
2018-12-14T11:08:34.735Z,30.96
2018-12-14T11:11:00.717Z,31.11
2018-12-14T11:13:26.723Z,31.08
2018-12-14T11:15:52.692Z,31.06
2018-12-14T11:18:18.668Z,31.16
2018-12-14T11:20:44.636Z,31.18
2018-12-14T11:23:10.643Z,31.20
2018-12-14T11:25:36.608Z,31.11
2018-12-14T11:28:02.596Z,30.96
2018-12-14T11:30:28.578Z,31.34
2018-12-14T11:32:54.574Z,31.27
2018-12-14T11:35:20.590Z,31.26
2018-12-14T11:37:46.590Z,31.36
2018-12-14T11:40:12.575Z,31.44
2018-12-14T11:42:38.562Z,31.37
2018-12-14T11:45:04.545Z,31.42
2018-12-14T11:47:30.530Z,31.53
2018-12-14T11:49:56.521Z,31.36
2018-12-14T11:52:22.531Z,31.39
2018-12-14T11:54:48.510Z,31.51
2018-12-14T11:57:14.535Z,31.56
2018-12-14T11:59:40.536Z,31.58
2018-12-14T12:02:06.572Z,31.57
2018-12-14T12:04:32.601Z,31.48
2018-12-14T12:06:58.609Z,31.67
2018-12-14T12:09:24.599Z,31.71
2018-12-14T12:11:50.568Z,31.29
2018-12-14T12:14:16.587Z,31.66
2018-12-14T12:16:42.714Z,31.56
2018-12-14T12:19:08.714Z,31.34
2018-12-14T12:21:34.713Z,31.59
2018-12-14T12:24:00.682Z,31.50
2018-12-14T12:26:26.665Z,31.65
2018-12-14T12:28:52.644Z,31.30
2018-12-14T12:31:18.626Z,31.53
2018-12-14T12:33:44.648Z,31.54
2018-12-14T12:36:10.604Z,31.60
2018-12-14T12:38:38.259Z,31.46
2018-12-14T12:41:02.590Z,31.47
2018-12-14T12:43:28.571Z,31.64
2018-12-14T12:45:54.604Z,31.63
2018-12-14T12:48:20.601Z,31.29
2018-12-14T12:50:46.647Z,31.50
2018-12-14T12:53:12.620Z,31.61
2018-12-14T12:55:38.624Z,31.63
2018-12-14T12:58:04.660Z,31.53
2018-12-14T13:00:30.628Z,31.75
2018-12-14T13:02:56.609Z,31.80
2018-12-14T13:05:22.619Z,31.64
2018-12-14T13:07:48.589Z,31.61
2018-12-14T13:10:14.570Z,31.66
2018-12-14T13:12:40.559Z,31.74
2018-12-14T13:15:06.608Z,31.69
2018-12-14T13:17:32.532Z,31.80
2018-12-14T13:19:58.550Z,31.68
2018-12-14T13:22:24.534Z,31.61
2018-12-14T13:24:50.534Z,31.73
2018-12-14T13:27:20.266Z,31.63
2018-12-14T13:29:42.515Z,31.78
2018-12-14T13:32:08.496Z,31.50
2018-12-14T13:34:34.503Z,31.66
2018-12-14T13:37:00.491Z,31.55
2018-12-14T13:39:26.472Z,31.77
2018-12-14T13:41:52.439Z,31.86
2018-12-14T13:44:18.429Z,31.76
2018-12-14T13:46:44.393Z,31.84
2018-12-14T13:49:10.370Z,31.75
2018-12-14T13:51:36.347Z,31.80
2018-12-14T13:54:02.323Z,31.55
2018-12-14T13:56:28.303Z,31.51
2018-12-14T13:58:54.297Z,31.56
2018-12-14T14:01:20.260Z,30.91
2018-12-14T14:03:46.255Z,31.33
2018-12-14T14:06:12.241Z,31.55
2018-12-14T14:08:38.322Z,31.44
2018-12-14T14:11:04.344Z,31.43
2018-12-14T14:13:30.345Z,31.50
2018-12-14T14:15:56.344Z,31.32
2018-12-14T14:18:22.329Z,31.72
2018-12-14T14:20:48.328Z,31.92
2018-12-14T14:23:14.309Z,31.80
2018-12-14T14:25:40.311Z,32.03
2018-12-14T14:28:06.292Z,31.98
2018-12-14T14:30:32.330Z,32.08
2018-12-14T14:32:58.328Z,32.14
2018-12-14T14:35:24.418Z,32.15
2018-12-14T14:37:50.397Z,32.18
2018-12-14T14:40:16.432Z,32.01
2018-12-14T14:42:42.438Z,32.14
2018-12-14T14:45:08.436Z,32.04
2018-12-14T14:47:34.415Z,32.09
2018-12-14T14:50:00.399Z,32.10
2018-12-14T14:52:26.433Z,31.87
2018-12-14T14:54:52.433Z,31.97
2018-12-14T14:57:18.405Z,31.95
2018-12-14T14:59:44.369Z,31.83
2018-12-14T15:02:10.346Z,31.76
2018-12-14T15:04:36.337Z,31.65
2018-12-14T15:07:02.319Z,31.94
2018-12-14T15:09:28.321Z,31.77
2018-12-14T15:11:54.298Z,31.97
2018-12-14T15:14:20.303Z,32.02
2018-12-14T15:16:46.268Z,31.75
2018-12-14T15:19:12.271Z,31.94
2018-12-14T15:21:38.875Z,31.57
2018-12-14T15:24:04.329Z,31.26
2018-12-14T15:26:30.304Z,31.17
2018-12-14T15:28:56.283Z,30.98
2018-12-14T15:31:22.297Z,31.08
2018-12-14T15:33:48.272Z,31.04
2018-12-14T15:36:14.246Z,31.02
2018-12-14T15:38:40.213Z,31.16
2018-12-14T15:41:06.202Z,31.27
2018-12-14T15:43:32.243Z,31.44
2018-12-14T15:45:58.241Z,31.34
2018-12-14T15:48:24.256Z,31.24
2018-12-14T15:50:50.248Z,31.92
2018-12-14T15:53:16.254Z,32.35
2018-12-14T15:55:42.221Z,33.46
2018-12-14T15:58:08.202Z,33.52
2018-12-14T16:00:34.206Z,33.10
2018-12-14T16:03:00.221Z,33.28
2018-12-14T16:05:26.206Z,33.09
2018-12-14T16:07:52.223Z,32.98
2018-12-14T16:10:18.210Z,33.20
2018-12-14T16:12:44.177Z,33.00
2018-12-14T16:15:10.160Z,32.99
2018-12-14T16:17:36.154Z,33.24
2018-12-14T16:20:02.140Z,33.58
2018-12-14T16:22:28.124Z,33.38
2018-12-14T16:24:54.134Z,33.35
2018-12-14T16:27:20.075Z,33.37
2018-12-14T16:29:46.109Z,33.12
2018-12-14T16:32:12.088Z,33.10
2018-12-14T16:34:38.096Z,32.96
2018-12-14T16:37:04.066Z,32.78
2018-12-14T16:39:30.059Z,32.86
2018-12-14T16:41:56.069Z,32.88
2018-12-14T16:44:22.038Z,32.91
2018-12-14T16:46:48.024Z,32.84
2018-12-14T16:49:14.076Z,32.84
2018-12-14T16:51:40.079Z,32.79
2018-12-14T16:54:06.060Z,32.82
2018-12-14T16:56:32.067Z,32.96
2018-12-14T16:58:58.048Z,33.16
2018-12-14T17:01:24.033Z,33.19
2018-12-14T17:03:50.004Z,33.16
2018-12-14T17:06:16.019Z,33.11
2018-12-14T17:08:41.965Z,33.04
2018-12-14T17:11:07.931Z,32.93
2018-12-14T17:13:33.918Z,32.65
2018-12-14T17:15:59.982Z,32.53
2018-12-14T17:18:25.971Z,32.63
2018-12-14T17:20:51.948Z,32.56
2018-12-14T17:23:17.925Z,32.46
2018-12-14T17:25:43.923Z,32.20
2018-12-14T17:28:09.917Z,32.22
2018-12-14T17:30:35.921Z,32.08
2018-12-14T17:33:01.901Z,32.11
2018-12-14T17:35:27.921Z,32.09
2018-12-14T17:37:53.927Z,31.96
2018-12-14T17:40:19.918Z,31.98
2018-12-14T17:42:45.904Z,31.82
2018-12-14T17:45:11.911Z,31.90
2018-12-14T17:47:37.891Z,32.08
2018-12-14T17:50:03.876Z,32.01
2018-12-14T17:52:29.875Z,31.86
2018-12-14T17:54:55.857Z,31.64
2018-12-14T17:57:21.847Z,31.61
2018-12-14T17:59:47.828Z,31.72
2018-12-14T18:02:13.842Z,31.20
2018-12-14T18:04:39.835Z,31.28
2018-12-14T18:07:05.834Z,31.97
2018-12-14T18:09:34.145Z,31.96
2018-12-14T18:11:59.382Z,32.06
2018-12-14T18:14:25.386Z,32.10
2018-12-14T18:16:51.371Z,32.22
2018-12-14T18:19:17.356Z,32.27
2018-12-14T18:21:43.347Z,32.30
2018-12-14T18:24:09.348Z,32.27
2018-12-14T18:26:35.319Z,32.23
2018-12-14T18:29:01.319Z,32.46
2018-12-14T18:31:27.326Z,32.44
2018-12-14T18:33:53.353Z,32.30
2018-12-14T18:36:19.335Z,32.42
2018-12-14T18:38:45.340Z,32.41
2018-12-14T18:41:11.367Z,32.54
2018-12-14T18:43:37.408Z,32.52
2018-12-14T18:46:03.713Z,32.83
2018-12-14T18:48:29.722Z,33.36
2018-12-14T18:50:55.691Z,33.91
2018-12-14T18:53:21.674Z,34.17
2018-12-14T18:55:47.649Z,34.04
2018-12-14T18:58:13.696Z,33.77
2018-12-14T19:00:39.687Z,33.70
2018-12-14T19:03:05.687Z,33.72
2018-12-14T19:05:31.660Z,33.67
2018-12-14T19:07:57.656Z,33.57
2018-12-14T19:10:23.656Z,33.47
2018-12-14T19:12:49.630Z,33.54
2018-12-14T19:15:15.615Z,33.49
2018-12-14T19:17:41.615Z,33.47
2018-12-14T19:20:07.596Z,33.31
2018-12-14T19:22:33.592Z,32.96
2018-12-14T19:24:59.578Z,33.05
2018-12-14T19:27:25.592Z,33.12
2018-12-14T19:29:51.555Z,33.24
2018-12-14T19:32:17.520Z,33.44
2018-12-14T19:34:43.492Z,33.23
2018-12-14T19:37:09.473Z,33.15
2018-12-14T19:39:36.303Z,33.09
2018-12-14T19:42:02.333Z,33.02
2018-12-14T19:44:28.291Z,33.05
2018-12-14T19:46:54.293Z,33.05
2018-12-14T19:49:20.264Z,33.16
2018-12-14T19:51:46.296Z,33.17
2018-12-14T19:54:12.366Z,33.41
2018-12-14T19:56:38.343Z,33.67
2018-12-14T19:59:04.340Z,33.52
2018-12-14T20:01:30.671Z,33.42
2018-12-14T20:03:56.650Z,33.37
2018-12-14T20:06:22.643Z,33.32
2018-12-14T20:08:48.616Z,33.35
2018-12-14T20:11:14.616Z,33.32
2018-12-14T20:13:40.605Z,33.36
2018-12-14T20:16:12.603Z,33.43
2018-12-14T20:18:32.563Z,33.47
2018-12-14T20:20:58.596Z,33.42
2018-12-14T20:23:24.578Z,33.49
2018-12-14T20:25:50.566Z,33.50
2018-12-14T20:28:16.567Z,33.54
2018-12-14T20:30:42.527Z,33.54
2018-12-14T20:33:08.498Z,33.51
2018-12-14T20:35:34.466Z,33.56
2018-12-14T20:38:00.467Z,33.50
2018-12-14T20:40:26.911Z,33.52
2018-12-14T20:42:52.887Z,33.56
2018-12-14T20:45:18.856Z,33.46
2018-12-14T20:47:45.033Z,33.51
2018-12-14T20:50:11.019Z,33.48
2018-12-14T20:52:37.041Z,33.51
2018-12-14T20:55:03.254Z,33.46
2018-12-14T20:57:29.233Z,33.51
2018-12-14T20:59:55.209Z,33.49
2018-12-14T21:02:21.205Z,33.51
2018-12-14T21:04:47.170Z,33.53
2018-12-14T21:07:13.153Z,33.49
2018-12-14T21:09:39.135Z,33.67
2018-12-14T21:12:05.110Z,33.55
2018-12-14T21:14:31.086Z,33.52
2018-12-14T21:16:57.075Z,33.47
2018-12-14T21:19:23.079Z,33.49
2018-12-14T21:21:49.045Z,33.43
2018-12-14T21:24:15.033Z,33.44
2018-12-14T21:26:41.020Z,33.47
2018-12-14T21:29:07.046Z,33.38
2018-12-14T21:31:33.035Z,33.34
2018-12-14T21:33:59.028Z,33.35
2018-12-14T21:36:25.005Z,33.32
2018-12-14T21:38:50.988Z,33.49
2018-12-14T21:41:16.983Z,33.45
2018-12-14T21:43:42.955Z,33.53
2018-12-14T21:46:08.930Z,33.56
2018-12-14T21:48:34.948Z,33.57
2018-12-14T21:51:00.924Z,33.63
2018-12-14T21:53:26.935Z,33.64
2018-12-14T21:55:52.897Z,33.70
2018-12-14T21:58:18.899Z,33.70
2018-12-14T22:00:44.874Z,33.73
2018-12-14T22:03:10.853Z,33.70
2018-12-14T22:05:36.985Z,33.73
2018-12-14T22:08:02.987Z,33.96
2018-12-14T22:10:28.975Z,33.95
2018-12-14T22:12:54.977Z,33.94
2018-12-14T22:15:20.947Z,34.00
2018-12-14T22:17:46.937Z,33.78
2018-12-14T22:20:12.903Z,33.83
2018-12-14T22:22:38.909Z,33.83
2018-12-14T22:25:04.881Z,33.77
2018-12-14T22:27:30.884Z,33.76
2018-12-14T22:29:56.888Z,33.72
2018-12-14T22:32:22.879Z,33.68
2018-12-14T22:34:48.864Z,33.67
2018-12-14T22:37:14.840Z,33.72
2018-12-14T22:39:40.823Z,33.61
2018-12-14T22:42:06.813Z,33.54
2018-12-14T22:44:32.797Z,33.55
2018-12-14T22:46:58.796Z,33.42
2018-12-14T22:49:24.778Z,33.46
2018-12-14T22:51:50.756Z,33.49
2018-12-14T22:54:16.740Z,33.56
2018-12-14T22:56:42.730Z,33.45
2018-12-14T22:59:08.724Z,33.37
2018-12-14T23:01:34.720Z,33.36
2018-12-14T23:04:00.695Z,33.44
2018-12-14T23:06:26.677Z,33.30
2018-12-14T23:08:52.650Z,33.33
2018-12-14T23:11:18.670Z,33.30
2018-12-14T23:13:44.659Z,33.34
2018-12-14T23:16:10.638Z,33.21
2018-12-14T23:18:36.618Z,33.24
2018-12-14T23:21:02.601Z,33.28
2018-12-14T23:23:28.570Z,33.34
2018-12-14T23:25:54.547Z,33.15
2018-12-14T23:28:20.539Z,33.19
2018-12-14T23:30:46.518Z,33.25
2018-12-14T23:33:12.507Z,33.32
2018-12-14T23:35:38.494Z,33.27
2018-12-14T23:38:04.477Z,33.15
2018-12-14T23:40:30.486Z,33.08
2018-12-14T23:42:56.451Z,33.15
2018-12-14T23:45:22.452Z,33.07
2018-12-14T23:47:48.426Z,33.05
2018-12-14T23:50:14.410Z,33.22
2018-12-14T23:52:40.406Z,33.02
2018-12-14T23:55:06.407Z,33.10
2018-12-14T23:57:32.421Z,33.04
2018-12-14T23:59:58.383Z,33.04
